createdAt,value
2018-12-15T00:01:07.606Z,38.39
2018-12-15T00:03:42.868Z,37.79
2018-12-15T00:06:17.863Z,38.58
2018-12-15T00:08:53.968Z,37.85
2018-12-15T00:11:26.219Z,38.09
2018-12-15T00:14:05.230Z,37.64
2018-12-15T00:16:42.886Z,37.30
2018-12-15T00:19:19.139Z,37.87
2018-12-15T00:21:51.357Z,38.25
2018-12-15T00:24:26.315Z,38.60
2018-12-15T00:26:59.855Z,38.48
2018-12-15T00:29:35.984Z,38.36
2018-12-15T00:32:16.210Z,38.74
2018-12-15T00:34:47.861Z,39.06
2018-12-15T00:37:25.468Z,38.85
2018-12-15T00:39:57.298Z,38.15
2018-12-15T00:42:37.643Z,38.15
2018-12-15T00:45:26.308Z,38.21
2018-12-15T00:47:58.748Z,38.58
2018-12-15T00:50:29.853Z,38.31
2018-12-15T00:53:09.814Z,38.32
2018-12-15T00:55:42.568Z,38.29
2018-12-15T00:58:17.598Z,38.06
2018-12-15T01:00:54.040Z,37.83
2018-12-15T01:03:40.732Z,38.13
2018-12-15T01:06:24.198Z,38.25
2018-12-15T01:11:50.351Z,37.90
2018-12-15T01:14:27.568Z,38.62
2018-12-15T01:17:09.667Z,38.21
2018-12-15T01:19:49.643Z,38.48
2018-12-15T01:22:23.971Z,38.32
2018-12-15T01:25:02.053Z,38.19
2018-12-15T01:27:33.975Z,37.95
2018-12-15T01:33:03.267Z,38.25
2018-12-15T01:35:39.135Z,38.43
2018-12-15T01:38:19.500Z,38.48
2018-12-15T01:40:52.270Z,38.10
2018-12-15T01:43:36.981Z,38.19
2018-12-15T01:46:11.476Z,38.44
2018-12-15T01:48:50.591Z,38.26
2018-12-15T01:51:25.900Z,38.47
2018-12-15T01:54:05.648Z,38.40
2018-12-15T01:56:39.384Z,38.37
2018-12-15T01:59:12.909Z,38.66
2018-12-15T02:01:51.898Z,38.68
2018-12-15T02:04:34.981Z,38.28
2018-12-15T02:07:16.987Z,38.64
2018-12-15T02:10:06.744Z,39.27
2018-12-15T02:12:44.166Z,38.84
2018-12-15T02:15:35.948Z,38.01
2018-12-15T02:18:14.778Z,38.85
2018-12-15T02:20:48.867Z,38.42
2018-12-15T02:23:31.731Z,39.17
2018-12-15T02:26:15.794Z,39.20
2018-12-15T02:28:52.129Z,38.49
2018-12-15T02:31:26.236Z,38.55
2018-12-15T02:33:57.933Z,38.31
2018-12-15T02:36:28.842Z,39.29
2018-12-15T02:39:00.173Z,38.82
2018-12-15T02:41:33.266Z,38.56
2018-12-15T02:44:03.957Z,38.72
2018-12-15T02:46:35.506Z,38.59
2018-12-15T02:49:14.873Z,38.30
2018-12-15T02:51:48.876Z,38.20
2018-12-15T02:54:24.965Z,38.80
2018-12-15T02:56:57.673Z,38.26
2018-12-15T02:59:28.085Z,38.99
2018-12-15T03:01:58.598Z,38.68
2018-12-15T03:04:32.741Z,38.85
2018-12-15T03:07:06.112Z,39.00
2018-12-15T03:09:37.356Z,39.05
2018-12-15T03:12:11.074Z,38.68
2018-12-15T03:14:47.015Z,38.58
2018-12-15T03:17:20.909Z,38.99
2018-12-15T03:22:33.521Z,38.47
2018-12-15T03:25:08.684Z,39.19
2018-12-15T03:27:43.862Z,38.96
2018-12-15T03:30:23.629Z,38.70
2018-12-15T03:33:01.821Z,38.89
2018-12-15T03:35:34.991Z,38.56
2018-12-15T03:38:09.401Z,38.68
2018-12-15T03:40:48.504Z,38.20
2018-12-15T03:43:22.850Z,37.87
2018-12-15T03:45:55.415Z,38.09
2018-12-15T03:48:34.267Z,37.82
2018-12-15T03:51:10.129Z,37.86
2018-12-15T03:53:48.277Z,38.63
2018-12-15T03:56:23.862Z,37.84
2018-12-15T03:59:00.092Z,37.17
2018-12-15T04:01:32.293Z,36.82
2018-12-15T04:04:06.735Z,37.51
2018-12-15T04:06:38.794Z,37.52
2018-12-15T04:09:12.171Z,36.73
2018-12-15T04:11:44.916Z,36.20
2018-12-15T04:14:20.086Z,36.57
2018-12-15T04:16:54.723Z,36.72
2018-12-15T04:19:27.487Z,36.79
2018-12-15T04:22:09.196Z,36.47
2018-12-15T04:24:41.200Z,37.44
2018-12-15T04:27:12.145Z,37.32
2018-12-15T04:29:45.575Z,36.97
2018-12-15T04:32:17.757Z,37.18
2018-12-15T04:34:55.014Z,37.54
2018-12-15T04:37:27.777Z,36.87
2018-12-15T04:39:57.940Z,37.25
2018-12-15T04:42:30.720Z,37.00
2018-12-15T04:45:08.039Z,36.55
2018-12-15T04:47:44.368Z,35.95
2018-12-15T04:50:18.445Z,37.15
2018-12-15T04:52:56.734Z,36.81
2018-12-15T04:55:30.902Z,37.40
2018-12-15T04:58:09.875Z,37.25
2018-12-15T05:00:43.465Z,37.85
2018-12-15T05:03:17.133Z,37.11
2018-12-15T05:05:55.030Z,37.40
2018-12-15T05:08:30.714Z,37.99
2018-12-15T05:11:11.249Z,37.79
2018-12-15T05:13:45.868Z,37.93
2018-12-15T05:16:22.677Z,37.16
2018-12-15T05:18:59.322Z,37.48
2018-12-15T05:21:39.647Z,37.05
2018-12-15T05:24:18.472Z,37.96
2018-12-15T05:26:56.955Z,37.06
2018-12-15T05:29:36.410Z,37.77
2018-12-15T05:32:12.064Z,37.65
2018-12-15T05:34:48.780Z,36.98
2018-12-15T05:37:22.839Z,36.13
2018-12-15T05:39:54.090Z,36.26
2018-12-15T05:42:32.838Z,36.79
2018-12-15T05:45:15.455Z,36.32
2018-12-15T05:47:52.451Z,36.94
2018-12-15T05:50:25.696Z,36.71
2018-12-15T05:53:05.144Z,37.91
2018-12-15T05:55:37.694Z,37.62
2018-12-15T05:58:12.122Z,37.63
2018-12-15T06:00:44.094Z,36.81
2018-12-15T06:03:23.533Z,37.51
2018-12-15T06:06:07.178Z,37.43
2018-12-15T06:08:42.874Z,37.08
2018-12-15T06:11:14.055Z,37.13
2018-12-15T06:13:48.652Z,37.04
2018-12-15T06:16:23.734Z,37.39
2018-12-15T06:18:59.550Z,37.25
2018-12-15T06:21:35.962Z,36.83
2018-12-15T06:24:10.276Z,37.50
2018-12-15T06:26:43.214Z,37.73
2018-12-15T06:29:14.285Z,37.89
2018-12-15T06:31:48.062Z,37.50
2018-12-15T06:34:21.117Z,37.74
2018-12-15T06:37:01.110Z,38.01
2018-12-15T06:39:33.643Z,37.02
2018-12-15T06:42:07.657Z,37.21
2018-12-15T06:44:41.861Z,37.45
2018-12-15T06:47:15.232Z,37.31
2018-12-15T06:49:47.666Z,38.26
2018-12-15T06:52:21.341Z,37.81
2018-12-15T06:54:55.232Z,37.58
2018-12-15T06:57:42.331Z,38.29
2018-12-15T07:00:18.987Z,37.74
2018-12-15T07:02:57.284Z,37.10
2018-12-15T07:05:31.876Z,36.81
2018-12-15T07:08:05.310Z,37.12
2018-12-15T07:10:43.526Z,37.59
2018-12-15T07:13:14.008Z,37.92
2018-12-15T07:15:49.182Z,38.12
2018-12-15T07:18:49.996Z,37.61
2018-12-15T07:21:25.812Z,37.88
2018-12-15T07:23:58.245Z,38.53
2018-12-15T07:26:34.590Z,38.18
2018-12-15T07:29:08.504Z,38.32
2018-12-15T07:31:42.735Z,38.09
2018-12-15T07:36:56.627Z,38.27
2018-12-15T07:39:33.467Z,37.90
2018-12-15T07:42:06.352Z,37.93
2018-12-15T07:44:36.011Z,36.95
2018-12-15T07:47:13.428Z,37.58
2018-12-15T07:49:48.157Z,37.83
2018-12-15T07:52:27.446Z,37.06
2018-12-15T07:55:03.567Z,37.51
2018-12-15T07:57:43.859Z,37.74
2018-12-15T08:00:25.427Z,38.12
2018-12-15T08:03:02.515Z,37.88
2018-12-15T08:05:39.413Z,37.77
2018-12-15T08:10:42.755Z,37.61
2018-12-15T08:13:20.239Z,37.22
2018-12-15T08:15:55.682Z,36.27
2018-12-15T08:18:26.367Z,35.79
2018-12-15T08:21:01.761Z,35.89
2018-12-15T08:23:35.273Z,36.37
2018-12-15T08:26:09.423Z,37.73
2018-12-15T08:28:48.389Z,36.50
2018-12-15T08:31:23.456Z,36.88
2018-12-15T08:33:59.015Z,37.73
2018-12-15T08:36:37.559Z,37.06
2018-12-15T08:39:15.168Z,36.58
2018-12-15T08:42:01.782Z,35.80
2018-12-15T08:44:38.346Z,36.58
2018-12-15T08:47:11.046Z,35.49
2018-12-15T08:49:49.599Z,35.98
2018-12-15T08:52:27.537Z,37.13
2018-12-15T08:55:00.433Z,38.15
2018-12-15T08:57:35.302Z,38.59
2018-12-15T09:00:12.923Z,38.61
2018-12-15T09:02:47.643Z,37.50
2018-12-15T09:05:23.591Z,38.54
2018-12-15T09:08:04.801Z,37.19
2018-12-15T09:10:40.443Z,37.17
2018-12-15T09:13:20.727Z,38.09
2018-12-15T09:15:58.950Z,37.88
2018-12-15T09:18:34.831Z,37.25
2018-12-15T09:21:15.587Z,35.74
2018-12-15T09:23:53.869Z,35.55
2018-12-15T09:26:40.150Z,35.76
2018-12-15T09:29:16.826Z,36.23
2018-12-15T09:31:51.355Z,35.86
2018-12-15T09:34:24.670Z,34.44
2018-12-15T09:37:00.747Z,35.69
2018-12-15T09:39:36.504Z,34.46
2018-12-15T09:42:09.225Z,35.26
2018-12-15T09:44:45.053Z,35.63
2018-12-15T09:47:20.285Z,35.10
2018-12-15T09:50:01.364Z,34.76
2018-12-15T09:52:36.279Z,35.15
2018-12-15T09:55:12.234Z,34.34
2018-12-15T09:58:01.659Z,34.25
2018-12-15T10:00:38.185Z,34.53
2018-12-15T10:03:12.573Z,34.89
2018-12-15T10:05:43.175Z,35.15
2018-12-15T10:08:19.463Z,34.46
2018-12-15T10:11:02.231Z,34.31
2018-12-15T10:13:40.507Z,34.00
2018-12-15T10:16:14.122Z,34.90
2018-12-15T10:18:50.971Z,34.61
2018-12-15T10:21:29.836Z,34.58
2018-12-15T10:24:04.868Z,34.66
2018-12-15T10:26:41.671Z,35.90
2018-12-15T10:29:21.057Z,36.56
2018-12-15T10:31:58.162Z,36.76
2018-12-15T10:34:34.865Z,36.76
2018-12-15T10:37:11.568Z,36.64
2018-12-15T10:39:45.590Z,34.73
2018-12-15T10:42:19.139Z,36.54
2018-12-15T10:44:57.176Z,36.32
2018-12-15T10:47:31.542Z,36.25
2018-12-15T10:50:05.902Z,36.90
2018-12-15T10:52:42.532Z,35.29
2018-12-15T10:55:16.207Z,34.68
2018-12-15T10:57:52.458Z,34.40
2018-12-15T11:00:58.347Z,32.91
2018-12-15T11:03:37.882Z,33.55
2018-12-15T11:06:21.954Z,34.20
2018-12-15T11:08:56.314Z,34.71
2018-12-15T11:11:38.703Z,35.57
2018-12-15T11:14:14.478Z,37.05
2018-12-15T11:16:51.495Z,36.44
2018-12-15T11:19:24.280Z,35.67
2018-12-15T11:24:42.032Z,35.36
2018-12-15T11:27:19.229Z,35.10
2018-12-15T11:29:50.528Z,35.29
2018-12-15T11:32:30.048Z,34.83
2018-12-15T11:35:10.436Z,34.71
2018-12-15T11:37:44.213Z,35.10
2018-12-15T11:40:22.548Z,34.61
2018-12-15T11:43:00.345Z,35.78
2018-12-15T11:45:36.016Z,35.40
2018-12-15T11:48:17.368Z,35.92
2018-12-15T11:50:55.653Z,36.53
2018-12-15T11:53:32.420Z,34.94
2018-12-15T11:56:08.514Z,33.62
2018-12-15T11:58:44.635Z,34.26
2018-12-15T12:01:20.288Z,35.54
2018-12-15T12:03:59.239Z,36.10
2018-12-15T12:06:32.498Z,35.10
2018-12-15T12:09:08.223Z,35.13
2018-12-15T12:11:39.227Z,35.89
2018-12-15T12:14:11.650Z,34.99
2018-12-15T12:16:48.498Z,35.09
2018-12-15T12:19:25.549Z,35.19
2018-12-15T12:22:17.943Z,34.91
2018-12-15T12:24:52.049Z,34.70
2018-12-15T12:27:36.010Z,34.33
2018-12-15T12:30:15.392Z,33.13
2018-12-15T12:32:53.208Z,34.55
2018-12-15T12:35:31.444Z,33.47
2018-12-15T12:38:09.691Z,33.51
2018-12-15T12:40:43.256Z,34.22
2018-12-15T12:43:17.183Z,34.45
2018-12-15T12:45:53.358Z,34.84
2018-12-15T12:48:31.417Z,34.29
2018-12-15T12:51:09.358Z,34.46
2018-12-15T12:53:50.036Z,34.42
2018-12-15T12:56:27.324Z,34.68
2018-12-15T12:59:04.744Z,34.32
2018-12-15T13:01:45.119Z,33.56
2018-12-15T13:04:19.496Z,33.56
2018-12-15T13:06:57.806Z,33.88
2018-12-15T13:09:29.274Z,34.46
2018-12-15T13:12:03.705Z,34.02
2018-12-15T13:14:37.220Z,34.24
2018-12-15T13:17:18.116Z,35.29
2018-12-15T13:19:53.343Z,35.13
2018-12-15T13:22:27.448Z,35.14
2018-12-15T13:25:00.870Z,34.31
2018-12-15T13:27:38.851Z,34.57
2018-12-15T13:30:25.048Z,34.27
2018-12-15T13:33:04.392Z,33.82
2018-12-15T13:35:36.828Z,34.86
2018-12-15T13:38:11.232Z,34.62
2018-12-15T13:40:50.273Z,34.87
2018-12-15T13:46:15.299Z,35.54
2018-12-15T13:48:52.721Z,34.77
2018-12-15T13:51:28.753Z,34.81
2018-12-15T13:54:09.191Z,34.54
2018-12-15T13:56:44.511Z,34.85
2018-12-15T13:59:18.648Z,34.72
2018-12-15T14:01:52.594Z,33.65
2018-12-15T14:07:10.269Z,35.09
2018-12-15T14:23:26.800Z,35.54
2018-12-15T14:26:03.871Z,34.80
2018-12-15T14:28:37.432Z,35.76
2018-12-15T14:31:21.444Z,35.25
2018-12-15T14:33:59.347Z,35.84
2018-12-15T14:36:35.102Z,35.13
2018-12-15T14:39:18.846Z,34.33
2018-12-15T14:41:58.436Z,35.46
2018-12-15T14:44:35.539Z,34.48
2018-12-15T14:47:13.908Z,35.16
2018-12-15T14:49:47.164Z,35.18
2018-12-15T14:52:27.232Z,35.27
2018-12-15T14:55:09.866Z,35.85
2018-12-15T14:57:49.817Z,34.78
2018-12-15T15:00:29.908Z,35.35
2018-12-15T15:03:06.875Z,35.25
2018-12-15T15:05:43.395Z,35.35
2018-12-15T15:08:27.825Z,35.86
2018-12-15T15:11:10.557Z,35.60
2018-12-15T15:13:50.479Z,36.06
2018-12-15T15:16:32.872Z,36.23
2018-12-15T15:19:04.919Z,35.86
2018-12-15T15:21:44.440Z,35.08
2018-12-15T15:24:24.107Z,34.76
2018-12-15T15:27:02.207Z,35.00
2018-12-15T15:29:40.456Z,34.97
2018-12-15T15:32:18.670Z,35.41
2018-12-15T15:34:54.277Z,34.98
2018-12-15T15:37:31.355Z,34.29
2018-12-15T15:40:08.118Z,33.74
2018-12-15T15:42:45.144Z,33.77
2018-12-15T15:45:30.091Z,34.97
2018-12-15T15:48:06.464Z,35.52
2018-12-15T15:53:25.908Z,35.79
2018-12-15T15:56:03.363Z,36.12
2018-12-15T15:58:38.449Z,36.26
2018-12-15T16:01:14.535Z,35.75
2018-12-15T16:03:49.790Z,36.05
2018-12-15T16:06:28.632Z,36.42
2018-12-15T16:09:12.140Z,35.62
2018-12-15T16:14:42.885Z,34.71
2018-12-15T16:17:20.139Z,35.90
2018-12-15T16:20:03.440Z,35.13
2018-12-15T16:22:40.138Z,35.64
2018-12-15T16:25:17.672Z,35.65
2018-12-15T16:28:01.457Z,34.97
2018-12-15T16:30:40.839Z,35.06
2018-12-15T16:33:12.698Z,35.02
2018-12-15T16:35:51.745Z,35.32
2018-12-15T16:38:27.813Z,34.15
2018-12-15T16:41:01.310Z,34.76
2018-12-15T16:43:37.715Z,35.00
2018-12-15T16:46:16.546Z,34.38
2018-12-15T16:48:49.676Z,35.43
2018-12-15T16:51:25.606Z,34.62
2018-12-15T16:54:03.437Z,33.64
2018-12-15T16:56:41.755Z,34.45
2018-12-15T16:59:16.434Z,34.33
2018-12-15T17:04:22.572Z,34.63
2018-12-15T17:06:56.642Z,34.86
2018-12-15T17:09:33.735Z,34.75
2018-12-15T17:12:04.478Z,34.55
2018-12-15T17:14:41.065Z,33.19
2018-12-15T17:17:13.126Z,32.92
2018-12-15T17:22:30.417Z,34.04
2018-12-15T17:25:01.299Z,34.55
2018-12-15T17:27:35.474Z,34.80
2018-12-15T17:30:09.939Z,35.41
2018-12-15T17:32:49.732Z,35.91
2018-12-15T17:35:31.263Z,34.63
2018-12-15T17:38:05.508Z,35.17
2018-12-15T17:40:35.794Z,35.51
2018-12-15T17:43:10.516Z,35.38
2018-12-15T17:45:46.159Z,35.56
2018-12-15T17:48:20.646Z,34.41
2018-12-15T17:51:03.119Z,34.54
2018-12-15T17:53:32.413Z,34.75
2018-12-15T17:56:06.961Z,34.45
2018-12-15T17:58:46.758Z,34.77
2018-12-15T18:01:20.658Z,35.13
2018-12-15T18:04:01.186Z,35.05
2018-12-15T18:06:36.402Z,35.44
2018-12-15T18:09:18.858Z,35.10
2018-12-15T18:11:58.476Z,35.59
2018-12-15T18:14:39.814Z,35.84
2018-12-15T18:17:21.323Z,35.36
2018-12-15T18:19:56.447Z,35.27
2018-12-15T18:22:35.773Z,35.36
2018-12-15T18:25:10.679Z,34.50
2018-12-15T18:27:50.234Z,34.43
2018-12-15T18:30:25.710Z,34.18
2018-12-15T18:33:02.288Z,33.89
2018-12-15T18:35:38.584Z,34.90
2018-12-15T18:38:15.461Z,35.99
2018-12-15T18:40:54.279Z,35.63
2018-12-15T18:43:35.761Z,35.57
2018-12-15T18:46:14.627Z,35.88
2018-12-15T18:48:56.123Z,36.04
2018-12-15T18:51:32.611Z,35.67
2018-12-15T18:56:44.468Z,34.68
2018-12-15T18:59:18.443Z,35.26
2018-12-15T19:01:53.106Z,36.19
2018-12-15T19:04:29.991Z,35.61
2018-12-15T19:07:05.221Z,34.47
2018-12-15T19:09:41.407Z,34.98
2018-12-15T19:12:17.371Z,35.55
2018-12-15T19:14:58.269Z,34.84
2018-12-15T19:17:36.528Z,36.15
2018-12-15T19:20:11.179Z,35.68
2018-12-15T19:22:51.299Z,35.56
2018-12-15T19:25:29.564Z,34.70
2018-12-15T19:30:42.884Z,35.31
2018-12-15T19:33:18.483Z,35.49
2018-12-15T19:35:57.835Z,35.32
2018-12-15T19:38:33.418Z,35.68
2018-12-15T19:41:08.187Z,35.83
2018-12-15T19:43:42.524Z,36.71
2018-12-15T19:46:27.040Z,35.76
2018-12-15T19:49:03.734Z,35.58
2018-12-15T19:51:43.151Z,36.76
2018-12-15T19:54:20.809Z,36.69
2018-12-15T19:56:55.193Z,36.22
2018-12-15T19:59:31.948Z,36.04
2018-12-15T20:02:07.265Z,36.29
2018-12-15T20:04:41.994Z,36.04
2018-12-15T20:07:19.119Z,35.90
2018-12-15T20:09:55.723Z,35.71
2018-12-15T20:12:33.341Z,35.89
2018-12-15T20:15:09.732Z,36.48
2018-12-15T20:17:45.057Z,36.73
2018-12-15T20:20:18.761Z,36.33
2018-12-15T20:23:02.635Z,35.77
2018-12-15T20:25:40.048Z,35.64
2018-12-15T20:28:19.539Z,35.99
2018-12-15T20:30:57.613Z,36.33
2018-12-15T20:33:33.286Z,36.52
2018-12-15T20:36:05.675Z,36.75
2018-12-15T20:38:55.657Z,36.20
2018-12-15T20:41:28.430Z,36.47
2018-12-15T20:46:47.426Z,36.99
2018-12-15T20:49:23.016Z,35.85
2018-12-15T20:51:57.865Z,36.26
2018-12-15T20:54:38.958Z,37.27
2018-12-15T20:57:12.369Z,36.64
2018-12-15T20:59:51.815Z,36.09
2018-12-15T21:02:27.960Z,35.00
2018-12-15T21:05:08.397Z,36.00
2018-12-15T21:07:43.867Z,36.32
2018-12-15T21:10:29.386Z,35.40
2018-12-15T21:13:04.377Z,36.30
2018-12-15T21:15:47.179Z,37.52
2018-12-15T21:18:24.057Z,37.59
2018-12-15T21:21:01.132Z,37.72
2018-12-15T21:23:34.727Z,38.25
2018-12-15T21:26:13.344Z,37.80
2018-12-15T21:28:47.144Z,36.41
2018-12-15T21:31:24.820Z,37.50
2018-12-15T21:34:07.768Z,37.29
2018-12-15T21:36:53.273Z,37.67
2018-12-15T21:42:27.444Z,38.05
2018-12-15T21:45:03.337Z,38.00
2018-12-15T21:47:38.932Z,37.88
2018-12-15T21:50:19.070Z,37.29
2018-12-15T21:52:55.406Z,37.06
2018-12-15T21:55:34.166Z,36.50
2018-12-15T21:58:09.279Z,37.12
2018-12-15T22:00:44.236Z,37.04
2018-12-15T22:03:20.582Z,36.97
2018-12-15T22:05:57.418Z,37.39
2018-12-15T22:08:32.458Z,36.70
2018-12-15T22:11:08.430Z,36.93
2018-12-15T22:13:45.475Z,37.58
2018-12-15T22:16:19.336Z,37.20
2018-12-15T22:19:00.277Z,38.02
2018-12-15T22:21:37.707Z,38.91
2018-12-15T22:24:11.393Z,39.04
2018-12-15T22:26:48.386Z,39.31
2018-12-15T22:29:23.344Z,38.81
2018-12-15T22:32:01.922Z,38.67
2018-12-15T22:34:40.389Z,38.65
2018-12-15T22:37:16.712Z,37.65
2018-12-15T22:39:55.033Z,38.49
2018-12-15T22:42:33.637Z,38.50
2018-12-15T22:45:14.713Z,38.47
2018-12-15T22:47:59.841Z,39.05
2018-12-15T22:50:40.771Z,38.73
2018-12-15T22:53:18.013Z,38.56
2018-12-15T22:55:58.046Z,38.09
2018-12-15T22:58:39.386Z,38.75
2018-12-15T23:01:15.034Z,39.07
2018-12-15T23:03:49.975Z,38.98
2018-12-15T23:06:26.827Z,39.40
2018-12-15T23:11:38.578Z,39.55
2018-12-15T23:14:14.447Z,38.87
2018-12-15T23:16:52.978Z,39.28
2018-12-15T23:19:30.319Z,39.51
2018-12-15T23:22:16.171Z,39.51
2018-12-15T23:24:49.496Z,38.53
2018-12-15T23:27:21.322Z,39.06
2018-12-15T23:29:56.145Z,39.81
2018-12-15T23:32:29.575Z,39.87
2018-12-15T23:35:02.301Z,39.67
2018-12-15T23:37:39.492Z,40.07
2018-12-15T23:40:16.471Z,39.28
2018-12-15T23:42:48.801Z,39.53
2018-12-15T23:45:27.159Z,38.68
2018-12-15T23:48:02.115Z,38.93
2018-12-15T23:50:39.799Z,39.44
2018-12-15T23:53:13.647Z,39.44
2018-12-15T23:55:55.038Z,37.87
2018-12-15T23:58:34.757Z,38.59
